x

9412110 - Port San Luis, Ca (pslc1) Weather Station

5:30pm - Tue 30th Sep 2014 All times are PDT. -7 hours from GMT.

  • Wind
    7mph, 11mph gusts
  • Sea Temp 57°f
  • Air Temp 73°f
  • Sea Pressure 1009.3mb
  • 9412110 - Port San Luis, Ca
  • 9412110 - Port San Luis, Ca

More Historic Weather Station data

Upgrade to MSW Pro to gain access to the past 30 days of data for over 8000 Wavebouys and Weather Stations around the globe.

Join Pro

Comparision Forecast

View Surf forecast
   
Tue 09/30 5:30pm 7 11 mph 1009.3mb 57f 73f
5:24pm 9 20 mph 1009.3mb 57f 73f
5:18pm 8 16 mph 1009.2mb 57f 73f
5:12pm 7 17 mph 1009.3mb 57f 73f
5:06pm 13 17 mph 1009.3mb 57f 73f
5:00pm 8 15 mph 1009.3mb 57f 72f
4:54pm 10 16 mph 1009.2mb 57f 74f
4:48pm 10 17 mph 1009.3mb 57f 74f
4:42pm 14 20 mph 1009.3mb 57f 73f
4:36pm 15 21 mph 1009.4mb 57f 73f
4:00pm 13 21 mph 1009.4mb 58f 74f
3:54pm 20 24 mph 1009.5mb 58f 72f
3:48pm 16 23 mph 1009.4mb 58f 74f
3:42pm 17 22 mph 1009.5mb 58f 74f
3:36pm 17 24 mph 1009.4mb 58f 74f
3:30pm 23 26 mph 1009.7mb 58f 73f
3:24pm 23 29 mph 1009.9mb 58f 72f
3:18pm 26 30 mph 1010mb 58f 72f
3:12pm 28 32 mph 1010.2mb 58f 70f
3:06pm 28 31 mph 1010.4mb 58f 70f
3:00pm 24 29 mph 1010.2mb 58f 71f
2:54pm 25 30 mph 1010.4mb 58f 71f
2:48pm 26 30 mph 1010.5mb 58f 70f
2:42pm 28 31 mph 1010.4mb 58f 70f
2:36pm 26 31 mph 1010.4mb 58f 71f
2:30pm 26 30 mph 1010.4mb 58f 71f
2:24pm 29 31 mph 1010.6mb 58f 70f
2:18pm 29 32 mph 1010.8mb 58f 70f
2:06pm 31 33 mph 1011mb 58f 69f
2:00pm 30 32 mph 1011mb 59f 70f
1:54pm 29 31 mph 1011.1mb 59f 70f
1:48pm 24 32 mph 1011mb 59f 72f
1:42pm 29 32 mph 1011.2mb 59f 70f
1:36pm 25 30 mph 1011.2mb 59f 72f
1:30pm 25 29 mph 1011.2mb 59f 72f
1:24pm 23 28 mph 1011.2mb 59f 72f
1:18pm 22 29 mph 1011.3mb 59f 72f
1:12pm 25 28 mph 1011.5mb 59f 71f
1:06pm 24 29 mph 1011.5mb 59f 72f
1:00pm 22 26 mph 1011.6mb 58f 73f
12:54pm 20 23 mph 1011.6mb 58f 73f
12:48pm 15 21 mph 1011.6mb 58f 75f
12:42pm 18 22 mph 1011.7mb 58f 74f
12:36pm 15 18 mph 1011.7mb 58f 77f
12:30pm 17 20 mph 1011.8mb 58f 76f
12:24pm 8 14 mph 1011.8mb 58f 79f
12:18pm 9 15 mph 1011.7mb 58f 80f
12:12pm 10 13 mph 1011.8mb 58f 80f
12:06pm 11 16 mph 1011.9mb 58f 80f
12:00pm 13 15 mph 1011.9mb 58f 81f
11:54am 5 9 mph 1012mb 58f 80f
11:48am 3 8 mph 1012.1mb 58f 79f
11:42am 3 6 mph 1012.1mb 58f 80f
11:36am 1 5 mph 1012.1mb 58f 81f
11:30am 2 5 mph 1012.2mb 58f 80f
11:24am 2 8 mph 1012.3mb 58f 79f
11:18am 6
mph
1012.3mb 58f 78f
11:12am 3 7 mph 1012.4mb 58f 78f
11:06am 3 8 mph 1012.4mb 58f 78f
11:00am 6 8 mph 1012.5mb 58f 77f
10:54am 3 7 mph 1012.6mb 58f 76f
10:48am 3 8 mph 1012.6mb 58f 76f
10:42am 1 6 mph 1012.7mb 58f 77f
10:36am  -  2 mph 1012.8mb 58f 79f
10:30am  -  2 mph 1012.8mb 58f 78f
10:24am 1 3 mph 1012.9mb 58f 76f
10:18am 2 3 mph 1013mb 58f 74f
10:12am 2 3 mph 1013mb 58f 75f
10:06am 2 3 mph 1013.1mb 58f 74f
10:00am 3 5 mph 1013.1mb 58f 73f
9:54am 3 6 mph 1013mb 58f 73f
9:48am 5 6 mph 1013mb 58f 72f
9:42am 5
mph
1013mb 58f 72f
9:36am 3 9 mph 1013.1mb 58f 72f
9:30am 8 13 mph 1013.1mb 58f 74f
9:24am 8 9 mph 1013.1mb 58f 74f
9:18am 3 6 mph 1013.1mb 58f 73f
9:12am 2 5 mph 1013.1mb 58f 73f
9:06am 2
mph
1013.2mb 58f 73f
9:00am 1 3 mph 1013.2mb 58f 72f
8:54am 1 3 mph 1013.2mb 58f 72f
8:48am 3 5 mph 1013.3mb 58f 71f
8:42am 3 5 mph 1013.3mb 58f 70f
8:36am 3 6 mph 1013.3mb 58f 70f
8:30am 1 3 mph 1013.3mb 58f 71f
8:24am  -  5 mph 1013.3mb 58f 71f
8:18am 3 6 mph 1013.2mb 58f 69f
8:12am 1 6 mph 1013.2mb 59f 69f
8:06am 5 6 mph 1013.2mb 59f 67f
8:00am 2 5 mph 1013.2mb 59f 67f
7:54am 2 5 mph 1013.2mb 59f 66f
7:48am 2 3 mph 1013.2mb 59f 66f
7:42am 1 2 mph 1013.2mb 59f 66f
7:36am 1 3 mph 1013.2mb 59f 66f
7:30am  -  3 mph 1013mb 59f 66f
7:24am  -  2 mph 1013mb 59f 65f
7:18am 1 2 mph 1013mb 59f 64f
7:12am 2 3 mph 1012.9mb 59f 64f
7:06am 2 3 mph 1012.9mb 59f 63f
7:00am 2
mph
1012.9mb 59f 62f
6:54am  -  1 mph 1012.9mb 59f 61f
6:48am  -  2 mph 1012.9mb 59f 61f
6:42am  -  2 mph 1012.8mb 59f 60f
6:36am 1 3 mph 1012.8mb 59f 59f
6:30am 2 3 mph 1012.9mb 59f 58f
6:24am 1 2 mph 1012.8mb 59f 58f
6:18am 1 2 mph 1012.8mb 59f 59f
6:12am 2 3 mph 1012.8mb 59f 59f
6:06am 3
mph
1012.8mb 59f 59f
6:00am 3
mph
1012.8mb 59f 59f
5:54am 2 3 mph 1012.8mb 59f 60f
5:48am 3 5 mph 1012.7mb 59f 60f
5:42am 3 5 mph 1012.6mb 59f 61f
5:36am  -  1 mph 1012.6mb 59f 62f
5:30am  -  2 mph 1012.5mb 59f 61f
5:24am 1 2 mph 1012.5mb 59f 61f
5:18am 2
mph
1012.6mb 59f 60f
5:12am  -  2 mph 1012.5mb 59f 60f
5:06am  -  mph 1012.6mb 59f 59f
5:00am  -  2 mph 1012.6mb 59f 60f
4:54am  -  2 mph 1012.6mb 59f 60f
4:48am  -  1 mph 1012.7mb 59f 60f
4:42am 1 2 mph 1012.7mb 59f 59f
4:36am  -  1 mph 1012.7mb 59f 59f
4:30am  -  1 mph 1012.9mb 59f 60f
4:24am 1
mph
1012.9mb 59f 59f
4:18am  -  1 mph 1012.9mb 59f 60f
4:12am  -  1 mph 1012.9mb 58f 59f
4:06am  -  1 mph 1012.9mb 58f 59f
4:00am  -  mph 1013mb 58f 59f
3:54am  -  mph 1013.1mb 58f 59f
3:48am  -  mph 1013.1mb 58f 59f
3:42am  -  2 mph 1013.1mb 58f 59f
3:36am 2 3 mph 1013.2mb 58f 60f
3:30am 2
mph
1013.3mb 58f 59f
3:24am 2 3 mph 1013.4mb 59f 59f
3:18am 1 2 mph 1013.5mb 59f 59f
3:12am  -  1 mph 1013.5mb 59f 59f
3:06am 1 2 mph 1013.5mb 59f 59f
3:00am 2 3 mph 1013.6mb 58f 58f
2:54am 2 5 mph 1013.6mb 58f 59f
2:48am 3 5 mph 1013.7mb 58f 59f
2:42am 1
mph
1013.7mb 58f 60f
2:36am  -  1 mph 1013.8mb 58f 60f
2:30am  -  mph 1013.8mb 58f 60f
2:24am  -  mph 1013.8mb 58f 60f
2:18am  -  2 mph 1013.9mb 58f 60f
2:12am 2
mph
1014mb 59f 59f
2:06am  -  mph 1013.9mb 59f 60f
2:00am  -  1 mph 1014.1mb 59f 60f
1:54am  -  2 mph 1014.1mb 59f 60f
1:48am  -  mph 1014mb 59f 60f
1:42am  -  2 mph 1014.1mb 59f 60f
1:36am 2
mph
1014.1mb 59f 60f
1:30am  -  1 mph 1014.1mb 59f 60f
1:24am  -  1 mph 1014.2mb 59f 60f
1:18am  -  1 mph 1014.1mb 59f 60f
1:12am 1 2 mph 1014.2mb 59f 60f
1:06am  -  1 mph 1014.2mb 59f 60f
1:00am  -  1 mph 1014.2mb 59f 61f
12:54am  -  1 mph 1014.2mb 59f 60f
12:48am  -  2 mph 1014.3mb 59f 60f
12:42am 2
mph
1014.3mb 59f 60f
12:36am  -  mph 1014.3mb 59f 61f
12:30am  -  1 mph 1014.3mb 59f 61f
12:24am  -  1 mph 1014.3mb 59f 61f
12:18am 1 2 mph 1014.3mb 59f 61f
12:12am 2 3 mph 1014.4mb 59f 61f
12:06am 3 5 mph 1014.5mb 59f 61f
12:00am  -  1 mph 1014.5mb 59f 62f
Mon 09/29 11:54pm  -  mph 1014.5mb 59f 62f
11:48pm  -  1 mph 1014.5mb 59f 62f
11:42pm  -  2 mph 1014.5mb 59f 62f
11:36pm 1 2 mph 1014.5mb 59f 62f
11:30pm 1 2 mph 1014.5mb 59f 62f
11:24pm  -  1 mph 1014.5mb 59f 62f
11:18pm 1 2 mph 1014.4mb 58f 62f
11:12pm  -  2 mph 1014.4mb 58f 62f
11:06pm 3
mph
1014.4mb 58f 62f
11:00pm 1 2 mph 1014.3mb 58f 62f
10:54pm 1
mph
1014.3mb 58f 63f
10:48pm  -  1 mph 1014.3mb 58f 63f
10:42pm 1 2 mph 1014.3mb 58f 63f
10:36pm 2
mph
1014.3mb 58f 63f
10:30pm  -  1 mph 1014.4mb 58f 63f
10:24pm  -  mph 1014.4mb 58f 64f
10:18pm  -  1 mph 1014.4mb 58f 64f
10:12pm  -  2 mph 1014.4mb 58f 64f
10:06pm 2 3 mph 1014.3mb 58f 64f
10:00pm 3 6 mph 1014.3mb 58f 64f
9:54pm 5 6 mph 1014.3mb 58f 64f
9:48pm 5 6 mph 1014.2mb 58f 65f
9:42pm 3 5 mph 1014.2mb 58f 65f
9:36pm 1 5 mph 1014.2mb 58f 65f
9:30pm 2 5 mph 1014.1mb 58f 64f
9:24pm 3 5 mph 1014.1mb 58f 64f
9:18pm 3 5 mph 1014.1mb 58f 64f
9:12pm 1 2 mph 1014mb 58f 65f
9:06pm  -  3 mph 1014mb 58f 65f
9:00pm 2 5 mph 1013.9mb 58f 65f
8:54pm 5
mph
1013.9mb 58f 65f
8:48pm  -  1 mph 1013.7mb 58f 65f
8:42pm  -  1 mph 1013.6mb 58f 65f
8:36pm  -  1 mph 1013.6mb 59f 65f
8:30pm  -  1 mph 1013.5mb 59f 66f
8:24pm  -  1 mph - - -
8:18pm 2
mph
1013.4mb 59f -
8:12pm 2 3 mph 1013.4mb 59f -
8:06pm 2 3 mph 1013.3mb 59f -
8:00pm 2 5 mph 1013.3mb 58f 68f
7:54pm 3 5 mph 1013.2mb 58f 68f
7:48pm 2 3 mph 1013.2mb 58f 68f
7:42pm 3 5 mph 1013.2mb 58f 68f
7:36pm 2 6 mph 1013.1mb 58f 68f
7:30pm 3 6 mph 1013.1mb 58f 70f
7:24pm 6 14 mph 1012.9mb 58f 71f
7:18pm 13 15 mph 1012.9mb 58f 73f
7:12pm 13 16 mph 1012.9mb 58f 73f
7:06pm 11 15 mph 1012.8mb 58f 73f
7:00pm 14 16 mph 1012.7mb 58f 73f
6:54pm 13 18 mph 1012.8mb 58f 73f
6:48pm 10 15 mph 1012.9mb 58f -
6:42pm 6 9 mph 1012.8mb 58f -
6:36pm 6 7 mph 1012.7mb 58f -
6:30pm 2 6 mph 1012.6mb 58f 73f
6:24pm 3 9 mph 1012.6mb 58f 74f
6:18pm 6 7 mph - 58f 74f
6:12pm 3 8 mph - 58f 75f
6:06pm 6 9 mph - 58f 74f
6:00pm 5 7 mph 1012.5mb 58f 74f
5:54pm 3 9 mph 1012.5mb 58f 75f
5:48pm 8 18 mph 1012.4mb 58f 76f
5:42pm 15 22 mph 1012.2mb 58f 76f
5:36pm 15 23 mph 1012.2mb 58f 76f
5:30pm 17 22 mph 1012.2mb 58f 76f
5:24pm 17 22 mph 1012.2mb 58f 76f
5:18pm 18 24 mph 1012.1mb 58f 76f
5:12pm 16 24 mph 1012.2mb 58f 76f
5:06pm 9 14 mph 1012.3mb 58f 76f
5:00pm 6 16 mph 1012.3mb 58f 77f
4:54pm 9 17 mph 1012.2mb 58f 77f
4:48pm 14 21 mph 1012.2mb 58f 77f
4:42pm 13 22 mph 1012.3mb 58f 77f
4:36pm 20 24 mph 1012mb 58f 76f
4:30pm 16 23 mph 1012.1mb 58f 77f
4:24pm 17 23 mph 1012.2mb 58f 77f
4:18pm 20 23 mph 1012.2mb 58f 77f
4:12pm 18 23 mph 1012.2mb 58f 77f
4:06pm 22 26 mph 1012.1mb 58f 77f
4:00pm 20 25 mph 1012.2mb 58f 77f
3:54pm 21 28 mph 1012.2mb 58f 77f
3:48pm 22 29 mph 1012.3mb 58f 76f
3:42pm 23 28 mph 1012.2mb 58f 76f
3:36pm 23 29 mph 1012.2mb 58f 76f
3:30pm 24 29 mph 1012.2mb 58f 76f
3:24pm 22 26 mph 1012.3mb 58f 77f
3:18pm 22 25 mph 1012.2mb 58f 78f
3:12pm 21 23 mph 1012.2mb 58f 78f
3:06pm 20 25 mph 1012.3mb 58f 79f
3:00pm 17 24 mph 1012.2mb 58f 79f
2:54pm 16 22 mph 1012.4mb 58f 80f
2:48pm 17 21 mph 1012.3mb 58f 80f
2:42pm 16 22 mph 1012.4mb 58f 80f
2:36pm 14 20 mph 1012.5mb 58f 80f
2:30pm 14 21 mph 1012.6mb 58f 80f
2:24pm 14 18 mph 1012.7mb 58f 80f
2:18pm 14 22 mph 1012.7mb 58f 80f
2:12pm 13 18 mph 1012.8mb 58f 80f
2:06pm 15 18 mph 1012.9mb 58f 80f
2:00pm 14 22 mph 1012.9mb 58f 80f
1:54pm 10 16 mph 1013.1mb 58f 80f
1:48pm 9 15 mph 1013.2mb 58f 80f
1:42pm 6 14 mph 1013.4mb 58f 79f
1:36pm 13 21 mph 1013.4mb 58f 78f
1:30pm 9 14 mph 1013.6mb 58f 79f
1:24pm 9 18 mph 1013.8mb 58f 79f
1:18pm 6 14 mph 1013.9mb 58f 79f
1:12pm 10 18 mph 1014.1mb 58f 77f
1:06pm 8 16 mph 1014.2mb 58f 76f
1:00pm 15 20 mph 1014.5mb 58f 74f
12:54pm 13 16 mph 1014.5mb 58f 74f
12:48pm 10 17 mph 1014.6mb 58f 74f
12:42pm 14 18 mph 1014.8mb 58f 73f
12:36pm 15 20 mph 1014.9mb 58f 72f
12:30pm  -  mph 1015mb 58f 70f
12:24pm  -  mph 1015mb 58f 71f
12:18pm 15 18 mph 1015mb 58f 72f
12:12pm 16 20 mph 1015.1mb 58f 71f
12:06pm 15 21 mph 1015.1mb 58f 71f
12:00pm 15 20 mph 1015.2mb 58f 71f
11:54am 16 20 mph 1015.3mb 58f 71f
11:48am 11 14 mph 1015.2mb 58f 73f
11:42am 1 2 mph 1015.2mb 58f 72f
11:36am  -  2 mph 1015.2mb 58f 68f
11:30am 2 3 mph 1015.3mb 58f 67f
11:24am  -  2 mph 1015.4mb 58f 70f
11:18am 2 6 mph 1015.5mb 58f 67f
11:12am 2 6 mph 1015.5mb 58f 66f
11:06am 3
mph
1015.5mb 58f 65f
11:00am 3 6 mph 1015.5mb 58f 64f
10:54am 2 5 mph 1015.5mb 58f 65f
10:48am  -  2 mph 1015.5mb 58f 68f
10:42am  -  1 mph 1015.5mb 58f 68f
10:36am  -  3 mph 1015.5mb 58f 67f
10:30am 3 5 mph 1015.5mb 58f 65f
10:24am 3 6 mph 1015.6mb 58f 61f
10:18am 3
mph
1015.7mb 58f 60f
10:12am 1 2 mph 1015.7mb 58f 61f
10:06am 1 2 mph 1015.8mb 58f 61f
10:00am 1 2 mph 1015.8mb 58f 60f
9:54am 2 3 mph 1015.9mb 58f 60f
9:48am 2 3 mph 1015.9mb 58f 61f
9:42am 1 3 mph 1015.9mb 58f 61f
9:36am 2 3 mph 1015.9mb 58f 61f
9:30am 1 2 mph 1015.9mb 58f 61f
9:24am 2 3 mph 1015.9mb 58f 60f
9:18am 1 2 mph 1015.8mb 58f 60f
9:12am 3 5 mph 1015.9mb 58f 60f
9:06am 2 3 mph 1015.9mb 58f 59f
9:00am 2 3 mph 1016mb 58f 59f
8:54am 2 3 mph 1015.9mb 58f 60f
8:48am 2
mph
1015.8mb 58f 60f
8:42am 2
mph
1015.8mb 58f 60f
8:36am  -  2 mph 1015.7mb 58f 60f
8:30am 2
mph
1015.7mb 58f 59f
8:24am 2 3 mph 1015.7mb 58f 60f
8:18am 3 5 mph 1015.6mb 58f 59f
8:12am 3
mph
1015.5mb 58f 60f
8:06am 3 5 mph 1015.4mb 58f 60f
8:00am 3
mph
1015.4mb 58f 59f
7:54am 2
mph
1015.4mb 58f 59f
7:48am 2
mph
1015.2mb 58f 59f
7:42am 2
mph
1015.1mb 58f 59f
7:36am 2 5 mph 1015mb 58f 58f
7:30am 2 3 mph 1014.9mb 58f 58f
7:24am 2
mph
1014.9mb 58f 58f
7:18am  -  mph 1014.8mb 58f 58f
7:12am  -  mph 1014.8mb 58f 58f
7:06am  -  1 mph 1014.8mb 58f 57f
7:00am 1 2 mph 1014.8mb 58f 57f
6:54am  -  1 mph 1014.7mb 58f 57f
6:48am 1 2 mph 1014.6mb 58f 57f
6:42am  -  1 mph 1014.6mb 58f 57f
6:36am  -  1 mph 1014.6mb 58f 57f
6:30am  -  2 mph 1014.6mb 58f 57f
6:24am 2
mph
1014.6mb 59f 57f
6:18am 1 2 mph 1014.6mb 59f 57f
6:12am  -  1 mph 1014.6mb 59f 57f
6:06am 2
mph
1014.6mb 59f 57f
6:00am 2 3 mph 1014.5mb 59f 57f
5:54am  -  1 mph 1014.5mb 59f 57f
5:48am 1
mph
1014.4mb 59f 57f
5:42am  -  2 mph 1014.4mb 59f 57f
5:36am 2 3 mph 1014.3mb 59f 57f
5:30am 3 5 mph 1014.3mb 59f 57f
5:24am 5
mph
1014.3mb 59f 57f
5:18am 3
mph
1014.4mb 59f 57f
5:12am  -  1 mph 1014.3mb 59f 57f
5:06am  -  1 mph 1014.4mb 59f 58f
5:00am 1 2 mph 1014.4mb 59f 58f
4:54am 1
mph
1014.4mb 59f 58f
4:48am  -  mph 1014.3mb 59f 58f
4:42am  -  1 mph 1014.2mb 59f 58f
4:36am  -  1 mph 1014.2mb 59f 57f
4:30am  -  1 mph 1014.2mb 59f 57f
4:24am 1 2 mph 1014.1mb 58f 57f
4:18am  -  1 mph 1014.1mb 58f 57f
4:12am  -  1 mph 1014.1mb 58f 57f
4:06am  -  mph 1014.1mb 58f 58f
4:00am  -  1 mph 1014mb 58f 58f
3:54am 1 2 mph 1014mb 58f 58f
3:48am  -  2 mph 1014.1mb 58f 58f
3:42am  -  2 mph 1014mb 58f 58f
3:36am 2
mph
1014.1mb 58f 58f
3:30am  -  1 mph 1014.2mb 58f 58f
3:24am  -  2 mph 1014.1mb 58f 57f
3:18am 2 3 mph 1014.2mb 58f 57f
3:12am  -  2 mph 1014.2mb 58f 58f
3:06am 1 2 mph 1014.2mb 58f 58f
3:00am  -  2 mph 1014.3mb 58f 58f
2:54am  -  mph 1014.3mb 58f 58f
2:48am  -  1 mph 1014.4mb 58f 58f
2:42am 1
mph
1014.5mb 58f 57f
2:36am  -  1 mph 1014.5mb 58f 57f
2:30am  -  1 mph 1014.5mb 58f 58f
2:24am  -  2 mph 1014.5mb 58f 58f
2:18am 1 2 mph 1014.5mb 58f 57f
2:12am  -  1 mph 1014.5mb 58f 58f
2:06am  -  1 mph 1014.5mb 58f 58f
2:00am  -  3 mph 1014.5mb 58f 58f
1:54am  -  1 mph 1014.6mb 58f 58f
1:48am  -  mph 1014.5mb 58f 58f
1:42am  -  mph 1014.6mb 58f 58f
1:36am  -  mph 1014.6mb 58f 58f
1:30am  -  1 mph 1014.5mb 58f 58f
1:24am  -  2 mph 1014.5mb 58f 58f
1:18am 2
mph
1014.4mb 58f 59f
1:12am  -  2 mph 1014.4mb 58f 59f
1:06am 1 3 mph 1014.4mb 58f 58f
1:00am 1 2 mph 1014.4mb 58f 58f
12:54am 2 6 mph 1014.4mb 58f 58f
12:48am 2 3 mph 1014.4mb 58f 58f
12:42am  -  2 mph 1014.5mb 58f 59f
12:36am 1 2 mph 1014.6mb 58f 58f
12:30am  -  2 mph 1014.6mb 58f 59f
12:24am  -  1 mph 1014.6mb 58f 59f
12:18am 1 2 mph 1014.7mb 58f 59f
12:12am 1 2 mph 1014.6mb 58f 59f
12:06am  -  3 mph 1014.5mb 58f 59f
12:00am 3 6 mph 1014.6mb 58f 58f
Sun 09/28 11:54pm 3
mph
1014.5mb 58f 59f
11:48pm 2 3 mph 1014.4mb 58f 59f
11:42pm  -  1 mph 1014.3mb 58f 59f
11:36pm 1
mph
1014.3mb 58f 59f
11:30pm  -  mph 1014.3mb 58f 59f
11:24pm  -  1 mph 1014.3mb 58f 59f
11:18pm  -  1 mph 1014.2mb 58f 59f
11:12pm  -  1 mph 1014.2mb 58f 59f
11:06pm  -  1 mph 1014.2mb 58f 60f
11:00pm  -  3 mph 1014.2mb 58f 60f
10:54pm  -  1 mph 1014.2mb 58f 60f
10:48pm  -  1 mph 1014.1mb 58f 60f
10:42pm 1 2 mph 1014.1mb 57f 60f
10:36pm  -  1 mph 1014mb 57f 60f
10:30pm 1 2 mph 1014mb 57f 60f
10:24pm  -  1 mph 1014mb 57f 60f
10:18pm  -  1 mph 1013.9mb 57f 60f
10:12pm 1 3 mph 1013.9mb 57f 60f
10:06pm 2 3 mph 1013.8mb 57f 60f
10:00pm  -  1 mph 1013.9mb 57f 60f
9:54pm 1 2 mph 1014mb 57f 60f
9:48pm  -  3 mph 1013.9mb 57f 60f
9:42pm 3
mph
1014mb 57f 61f
9:36pm 3
mph
1014mb 57f 61f
9:30pm 1 2 mph 1013.9mb 57f 61f
9:24pm 1 2 mph 1013.9mb 58f 61f
9:18pm 1 3 mph 1013.8mb 58f 61f
9:12pm 3 5 mph 1013.8mb 58f 61f
9:06pm 5 6 mph 1013.8mb 58f 61f
9:00pm 5 6 mph 1013.8mb 58f 61f
8:54pm 3 5 mph 1013.7mb 58f 61f
8:48pm 3 8 mph 1013.6mb 58f 63f
8:42pm 5 6 mph 1013.6mb 58f 63f
8:36pm 7 9 mph 1013.6mb 58f 63f
8:30pm 6 11 mph 1013.5mb 58f 63f
8:24pm 9 11 mph 1013.4mb 58f 63f
8:18pm 9 14 mph 1013.4mb 58f 63f
8:12pm 9 13 mph 1013.4mb 58f 63f
8:06pm 11 14 mph 1013.3mb 58f 63f
8:00pm 11 14 mph 1013.3mb 58f 63f
7:54pm 11 15 mph 1013.3mb 58f 63f
7:48pm 11 14 mph 1013.2mb 58f 63f
7:42pm 13 15 mph 1013.2mb 58f 63f
7:36pm 11 15 mph 1013.1mb 58f 63f
7:30pm 11 15 mph 1013.1mb 58f 63f
7:24pm 13 15 mph 1013.1mb 58f 63f
7:18pm 14 16 mph 1013.2mb 58f 63f
7:12pm 13 17 mph 1013.1mb 58f 63f
7:06pm 14 17 mph 1013.1mb 58f 63f
7:00pm 14 16 mph 1013.1mb 58f 63f
6:54pm 13 17 mph 1013.1mb 58f 63f
6:48pm 14 17 mph 1013.2mb 58f 64f
6:42pm 11 16 mph 1013.1mb 58f 64f
6:36pm 14 17 mph 1013.2mb 58f 64f
6:30pm 15 18 mph 1013.1mb 58f 64f
6:24pm 15 18 mph 1013.1mb 58f 64f
6:18pm 16 20 mph 1012.9mb 58f 64f
6:12pm 15 21 mph 1012.8mb 58f 64f
6:06pm 16 21 mph 1012.9mb 58f 64f
6:00pm 16 21 mph 1012.9mb 58f 64f
5:54pm 16 21 mph 1013mb 58f 64f
5:48pm 15 18 mph 1012.9mb 58f 65f
5:42pm 16 20 mph 1012.7mb 58f 65f
5:36pm 17 21 mph 1012.7mb 58f 65f
5:30pm 17 22 mph 1013mb 58f 65f
5:24pm 16 21 mph 1013mb 58f 65f
5:18pm 17 22 mph 1012.9mb 58f 65f
5:12pm 17 22 mph 1012.8mb 58f 65f
5:06pm 14 21 mph 1012.8mb 58f 65f
5:00pm 14 21 mph 1012.8mb 58f 65f
4:54pm 16 22 mph 1012.8mb 58f 65f
4:48pm 16 23 mph 1012.9mb 58f 65f
4:42pm 15 20 mph 1013mb 58f 65f
4:36pm 14 18 mph 1012.9mb 58f 65f
4:30pm 14 18 mph 1012.8mb 58f 65f
4:24pm 14 18 mph 1012.9mb 58f 65f
4:18pm 16 20 mph 1013mb 58f 65f
4:12pm 16 20 mph 1013.1mb 58f 65f
4:06pm 14 18 mph 1013.2mb 58f 65f
4:00pm 11 17 mph 1013.2mb 58f 65f
3:54pm 11 17 mph 1013.4mb 58f 65f
3:48pm 11 22 mph 1013.4mb 58f 64f
3:42pm 11 18 mph 1013.4mb 58f 64f
3:36pm 10 20 mph 1013.5mb 58f 64f
3:30pm 11 21 mph 1013.4mb 58f 65f
3:24pm 7 14 mph 1013.4mb 58f 65f
3:18pm 6 13 mph 1013.5mb 58f 65f
3:12pm 6 13 mph 1013.5mb 59f 65f
3:06pm 3 15 mph 1013.4mb 59f 65f
3:00pm 11 15 mph 1013.4mb 59f 64f
2:54pm 7 20 mph 1013.5mb 59f 64f
2:48pm 8 14 mph 1013.6mb 59f 64f
2:42pm 6 15 mph 1013.5mb 59f 64f
2:36pm 8 14 mph 1013.8mb 59f 64f
2:30pm 10 15 mph 1013.7mb 59f 64f
2:24pm 10 15 mph 1013.6mb 59f 64f
2:18pm 8 14 mph 1013.5mb 59f 65f
2:12pm 9 14 mph 1013.6mb 59f 65f
2:06pm 7 17 mph 1013.5mb 59f 64f
2:00pm 10 15 mph 1013.5mb 59f 64f
1:54pm 8 15 mph 1013.5mb 59f 65f
1:48pm 8 15 mph 1013.6mb 59f 64f
1:42pm 8 18 mph 1013.7mb 59f 64f
1:36pm 8 13 mph 1013.7mb 59f 65f
1:30pm 9 14 mph 1013.9mb 59f 64f
1:24pm 8 14 mph 1013.8mb 59f 65f
1:18pm 9 13 mph 1013.9mb 59f 64f
1:12pm 7 13 mph 1013.9mb 59f 64f
1:06pm 9 11 mph 1014.2mb 59f 64f
1:00pm 10 13 mph 1014.2mb 59f 64f
12:54pm 10 11 mph 1014.2mb 59f 64f
12:48pm 10 13 mph 1014.2mb 59f 63f
12:42pm 10 11 mph 1014.2mb 59f 63f
12:36pm 8 10 mph 1014.2mb 59f 63f
12:30pm 7 9 mph 1014mb 59f 62f
12:24pm 8 9 mph 1014.1mb 59f 61f
12:18pm 5 6 mph 1014.2mb 59f 62f
12:12pm 2
mph
1014.3mb 59f 63f
12:06pm 2
mph
1014.3mb 58f 64f
12:00pm  -  2 mph 1014.3mb 58f 64f
11:54am 2
mph
1014.3mb 58f 65f
11:48am  -  1 mph 1014.4mb 58f 66f
11:42am  -  1 mph 1014.5mb 58f 66f
11:36am  -  1 mph 1014.6mb 58f 63f
11:30am  -  1 mph 1014.7mb 58f 62f
11:24am  -  1 mph 1014.7mb 58f 62f
11:18am  -  1 mph 1014.8mb 58f 62f
11:12am  -  1 mph 1014.8mb 58f 62f
11:06am 1 2 mph 1014.9mb 58f 61f
11:00am 2
mph
1015mb 58f 61f
10:54am  -  2 mph 1015mb 58f 62f
10:48am  -  1 mph 1015mb 58f 61f
10:42am  -  2 mph 1015mb 58f 61f
10:36am  -  2 mph 1015mb 58f 61f
10:30am 1
mph
1015mb 58f 61f
10:24am  -  1 mph 1015mb 58f 61f
10:18am  -  1 mph 1014.9mb 58f 61f
10:12am 1 2 mph 1014.8mb 58f 61f
10:06am  -  1 mph 1014.7mb 58f 61f
10:00am  -  1 mph 1014.6mb 58f 61f
9:54am  -  1 mph 1014.6mb 58f 61f
9:48am  -  2 mph 1014.6mb 58f 61f
9:42am 1
mph
1014.6mb 58f 60f
9:36am  -  1 mph 1014.6mb 58f 60f
9:30am  -  mph 1014.6mb 58f 60f
9:24am  -  1 mph 1014.7mb 58f 60f
9:18am  -  1 mph 1014.6mb 58f 61f
9:12am  -  mph 1014.5mb 58f 60f
9:06am  -  1 mph 1014.3mb 58f 60f
9:00am  -  1 mph 1014.3mb 58f 60f
8:54am  -  2 mph 1014.3mb 58f 60f
8:48am 2
mph
1014.1mb 58f 60f
8:42am 2 3 mph 1014mb 58f 60f
8:36am 3 5 mph 1014mb 58f 60f
8:30am 3
mph
1013.9mb 58f 60f
8:24am 1
mph
1013.8mb 58f 61f
8:18am  -  mph 1013.7mb 58f 62f
8:12am  -  1 mph 1013.5mb 58f 61f
8:06am  -  3 mph 1013.5mb 58f 61f
8:00am 3
mph
1013.4mb 58f 60f
7:54am 2 3 mph 1013.2mb 58f 60f
7:48am 3 5 mph 1013.3mb 58f 58f
7:42am 3 5 mph 1013.2mb 58f 58f
7:36am 2 3 mph 1013.1mb 58f 58f
7:30am  -  mph 1013.1mb 58f 58f
7:24am 1
mph
1013.1mb 58f 58f
7:18am  -  3 mph 1013.2mb 58f 58f
7:12am  -  1 mph 1013.1mb 58f 58f
7:06am  -  2 mph 1012.8mb 58f 58f
7:00am 1 3 mph 1012.7mb 58f 58f
6:54am 2 3 mph 1012.6mb 58f 57f
6:48am 2
mph
1012.5mb 58f 58f
6:42am 2 3 mph 1012.3mb 58f 57f
6:36am  -  1 mph 1012.2mb 58f 58f
6:30am  -  1 mph 1012.2mb 58f 58f
6:24am  -  1 mph 1012.3mb 58f 58f
6:18am 1 3 mph 1012.4mb 58f 58f
6:12am 1 2 mph 1012.4mb 58f 58f
6:06am  -  1 mph 1012.3mb 58f 58f
6:00am  -  2 mph 1012.2mb 58f 58f
5:54am  -  1 mph 1012.2mb 58f 58f
5:48am  -  1 mph 1012.1mb 58f 58f
5:42am  -  2 mph 1012mb 58f 58f
5:36am  -  2 mph 1012mb 58f 58f
5:30am 2
mph
1012.2mb 58f 58f
5:24am  -  1 mph 1012mb 58f 58f
5:18am  -  1 mph 1012mb 58f 58f
5:12am  -  1 mph 1011.9mb 58f 58f
5:06am  -  1 mph 1011.9mb 58f 58f
5:00am  -  1 mph 1012mb 58f 58f
4:54am 1 2 mph 1012mb 58f 58f
4:48am  -  1 mph 1012mb 58f 58f
4:42am  -  1 mph 1012.1mb 58f 58f
4:36am  -  1 mph 1012.1mb 58f 58f
4:30am  -  1 mph 1012mb 58f 58f
4:24am 2 3 mph 1012mb 58f 58f
4:18am 2
mph
1011.9mb 58f 58f
4:12am  -  1 mph 1012mb 58f 58f
4:06am  -  1 mph 1012mb 58f 58f
4:00am 1 3 mph 1011.9mb 58f 57f
3:54am 2 3 mph 1011.9mb 58f 57f
3:48am  -  1 mph 1011.9mb 58f 58f
3:42am 1 2 mph 1011.8mb 58f 57f
3:36am  -  1 mph 1011.8mb 58f 57f
3:30am  -  mph 1011.8mb 58f 58f
3:24am  -  mph 1011.7mb 58f 58f
3:18am  -  1 mph 1011.7mb 58f 58f
3:12am  -  2 mph 1011.6mb 58f 58f
3:06am 2 3 mph 1011.6mb 58f 58f
3:00am 2 3 mph 1011.6mb 58f 58f
2:54am  -  2 mph 1011.8mb 58f 58f
2:48am 1 2 mph 1011.8mb 58f 58f
2:42am 1 2 mph 1011.8mb 58f 58f
2:36am  -  1 mph 1011.9mb 58f 58f
2:30am 1 2 mph 1011.9mb 58f 58f
2:24am 1 2 mph 1012mb 58f 58f
2:18am 2 3 mph 1012mb 58f 59f
2:12am  -  2 mph 1012mb 58f 59f
2:06am 1 2 mph 1012.1mb 58f 58f
2:00am 2
mph
1012.1mb 58f 58f
1:54am 1 3 mph 1012.1mb 58f 58f
1:48am 3
mph
1012.2mb 58f 58f
1:42am 2 3 mph 1012.1mb 58f 58f
1:36am  -  3 mph 1012.2mb 58f 58f
1:30am 2 3 mph 1012.1mb 58f 59f
1:24am  -  2 mph 1012.1mb 58f 59f
1:18am 2 3 mph 1012.1mb 58f 59f
1:12am 2 5 mph 1012mb 58f 59f
1:06am  -  2 mph 1012.1mb 58f 60f
1:00am 2
mph
1012.1mb 58f 59f
12:54am 1 3 mph 1012.2mb 58f 59f
12:48am 1 3 mph 1012.2mb 58f 60f
12:42am  -  2 mph 1012.2mb 58f 60f
12:36am  -  3 mph 1012.1mb 58f 60f
12:30am 2 5 mph 1012.1mb 58f 60f
12:24am  -  3 mph 1012.1mb 58f 60f
12:18am 3 6 mph 1012.1mb 58f 61f
12:12am 6 7 mph 1012.1mb 58f 61f
12:06am 6 7 mph 1012.2mb 58f 61f
12:00am 3 5 mph 1012.3mb 58f 61f
Sat 09/27 11:54pm 5 7 mph 1012.3mb 58f 61f
11:48pm 6 7 mph 1012.3mb 58f 61f
11:42pm 5 6 mph 1012.3mb 58f 61f
11:36pm 2 3 mph 1012.3mb 58f 60f
11:30pm 1 2 mph 1012.2mb 58f 60f
11:24pm 1 2 mph 1012.3mb 58f 60f
11:18pm  -  2 mph 1012.3mb 58f 60f
11:12pm 2 3 mph 1012.3mb 58f 60f
11:06pm 1 2 mph 1012.2mb 58f 60f
11:00pm 1 2 mph 1012.2mb 58f 60f
10:54pm  -  2 mph 1012.2mb 58f 61f
10:48pm  -  3 mph 1012.2mb 58f 61f
10:42pm 1 6 mph 1012.3mb 58f 61f
10:36pm 1 7 mph 1012.4mb 58f 61f
10:30pm 5 7 mph 1012.4mb 58f 61f
10:24pm 2 3 mph 1012.4mb 58f 61f
10:18pm 1 2 mph 1012.5mb 58f 61f
10:12pm 2 3 mph 1012.5mb 58f 61f
10:06pm 1 6 mph 1012.4mb 58f 61f
10:00pm 5 7 mph 1012.4mb 58f 61f
9:54pm 6 7 mph 1012.3mb 58f 62f
9:48pm 3 7 mph 1012.3mb 58f 63f
9:42pm 6 7 mph 1012.3mb 58f 63f
9:36pm 3 6 mph 1012.3mb 58f 62f
9:30pm 2 3 mph 1012.3mb 58f 62f
9:24pm 2 5 mph 1012.3mb 58f 62f
9:18pm 2 6 mph 1012.3mb 58f 62f
9:12pm 5 6 mph 1012.3mb 58f 62f
9:06pm 1 5 mph 1012.2mb 58f 62f
9:00pm 3 7 mph 1012.2mb 58f 63f
8:54pm 5 7 mph 1012.2mb 58f 63f
8:48pm 3 8 mph 1012.2mb 58f 63f
8:42pm 6 10 mph 1012.2mb 58f 63f
8:36pm 3 11 mph 1012.1mb 58f 63f
8:30pm 7 9 mph 1012mb 58f 63f
8:24pm 2 7 mph 1011.9mb 58f 63f
8:18pm 6 8 mph 1011.9mb 58f 63f
8:12pm 7 10 mph 1011.8mb 58f 64f
8:06pm 3 7 mph 1011.8mb 58f 63f
8:00pm 3 5 mph 1011.7mb 58f 63f
7:54pm 2 5 mph 1011.7mb 58f 63f
7:48pm 2 5 mph 1011.6mb 58f 63f
7:42pm 2 7 mph 1011.6mb 58f 63f
7:36pm 7 13 mph 1011.5mb 58f 63f
7:30pm 6 8 mph 1011.5mb 58f 64f
7:24pm 5 14 mph 1011.5mb 58f 64f
7:18pm 9 15 mph 1011.4mb 58f 64f
7:12pm 8 14 mph 1011.4mb 58f 64f
7:06pm 8 13 mph 1011.4mb 58f 64f
7:00pm 8 14 mph 1011.4mb 58f 64f
6:54pm 6 16 mph 1011.5mb 58f 64f
6:48pm 5 11 mph 1011.4mb 58f 64f
6:42pm 3 10 mph 1011.5mb 58f 64f
6:36pm 3 8 mph 1011.5mb 58f 64f
6:30pm 2 7 mph 1011.5mb 58f 64f
6:24pm 6 11 mph 1011.5mb 58f 64f
6:18pm 5 9 mph 1011.5mb 58f 65f
6:12pm 6 15 mph 1011.5mb 58f 65f
6:06pm 6 10 mph 1011.4mb 58f 65f
6:00pm 2 8 mph 1011.3mb 58f 65f
5:54pm 5 13 mph 1011.4mb 58f 65f
5:48pm 5 11 mph 1011.4mb 58f 65f
5:42pm 11 18 mph 1011.5mb 58f 65f
5:36pm 6 15 mph 1011.5mb 58f 66f
5:30pm 5 18 mph 1011.5mb 58f 66f
5:24pm 13 24 mph 1011.4mb 58f 66f
5:18pm 14 24 mph 1011.4mb 58f 66f
5:12pm 13 25 mph 1011.5mb 58f 67f
5:06pm 11 21 mph 1011.4mb 58f 67f
5:00pm 9 23 mph 1011.3mb 58f 67f
4:54pm 10 20 mph 1011.2mb 58f 67f
4:48pm 13 23 mph 1011.2mb 58f 67f
4:42pm 10 20 mph 1011.3mb 58f 68f
4:36pm 13 18 mph 1011.4mb 58f 67f
4:30pm 7 15 mph 1011.4mb 58f 68f
4:24pm 5 13 mph 1011.4mb 58f 68f
4:18pm 6 13 mph 1011.4mb 59f 68f
4:12pm 8 18 mph 1011.5mb 59f 68f
4:06pm 10 24 mph 1011.6mb 59f 68f
4:00pm 7 23 mph 1011.5mb 59f 68f
3:54pm 11 18 mph 1011.7mb 59f 68f
3:48pm 6 23 mph 1011.6mb 59f 69f
3:42pm 13 21 mph 1011.7mb 59f 68f
3:36pm 5 18 mph 1011.5mb 59f 69f
3:30pm 11 17 mph 1011.6mb 59f 69f
3:24pm 6 16 mph 1011.5mb 59f 69f
3:18pm 13 26 mph 1011.6mb 59f 69f
3:12pm 18 25 mph 1011.6mb 59f 68f
3:06pm 13 26 mph 1011.7mb 59f 68f
3:00pm 9 20 mph 1011.7mb 59f 69f
2:54pm 10 20 mph 1012mb 59f 68f
2:48pm 9 21 mph 1012mb 59f 68f
2:42pm 11 25 mph 1012.1mb 59f 68f
2:36pm 11 20 mph 1012.3mb 59f 68f
2:30pm 10 29 mph 1012.3mb 59f 68f
2:24pm 18 28 mph 1012.7mb 59f 67f
2:18pm 22 26 mph 1012.9mb 59f 66f
2:12pm 22 29 mph 1012.7mb 59f 66f
2:06pm 17 25 mph 1012.7mb 59f 67f
2:00pm 20 26 mph 1012.6mb 59f 67f
1:54pm 23 29 mph 1012.9mb 59f 67f
1:48pm 20 28 mph 1012.8mb 59f 67f
1:42pm 15 25 mph 1012.7mb 59f 68f
1:36pm 16 25 mph 1012.9mb 59f 68f
1:30pm 20 29 mph 1013.1mb 59f 66f
1:24pm 18 24 mph 1013.2mb 59f 66f
1:18pm 18 25 mph 1013.2mb 59f 67f
1:12pm 18 28 mph 1013.3mb 59f 67f
1:06pm 20 25 mph 1013.6mb 59f 66f
1:00pm 17 26 mph 1013.5mb 59f 66f
12:54pm 20 26 mph 1013.6mb 59f 66f
12:48pm 20 25 mph 1013.6mb 59f 66f
12:42pm 15 24 mph 1013.5mb 59f 66f
12:36pm 16 25 mph 1013.4mb 59f 66f
12:30pm 17 23 mph 1013.6mb 59f 67f
12:24pm 15 24 mph 1013.7mb 59f 66f
12:18pm 16 22 mph 1013.8mb 59f 67f
12:12pm 18 22 mph 1013.7mb 59f 67f
12:06pm 3 18 mph 1013.4mb 59f 69f
12:00pm 15 22 mph 1013.6mb 59f 67f
11:54am 13 21 mph 1013.6mb 59f 67f
11:48am 17 23 mph 1013.7mb 59f 67f
11:42am 10 22 mph 1013.8mb 59f 67f
11:36am 15 21 mph 1013.8mb 59f 67f
11:30am 11 17 mph 1013.8mb 59f 68f
11:24am 7 16 mph 1013.9mb 59f 68f
11:18am 6 22 mph 1013.9mb 59f 69f
11:12am 10 21 mph 1014mb 59f 68f
11:06am 14 24 mph 1014.1mb 59f 67f
11:00am 13 17 mph 1014mb 59f 67f
10:54am 9 16 mph 1014.1mb 59f 67f
10:48am 6 14 mph 1014.2mb 59f 66f
10:42am 2 6 mph 1014.5mb 59f 65f
10:36am 1 3 mph 1014.5mb 59f 64f
10:30am 1 3 mph 1014.6mb 59f 63f
10:24am 1 6 mph 1014.6mb 59f 62f
10:18am 5 6 mph 1014.7mb 59f 60f
10:12am 5 6 mph 1014.7mb 59f 60f
10:06am 3 5 mph 1014.8mb 59f 60f
10:00am 2 3 mph 1014.8mb 59f 59f
9:54am 2 3 mph 1014.8mb 59f 60f
9:48am 2 3 mph 1014.9mb 59f 60f
9:42am 2
mph
1015mb 59f 61f
9:36am 2
mph
1014.9mb 59f 60f
9:30am 1 2 mph 1014.9mb 59f 60f
9:24am 2 3 mph 1014.9mb 59f 60f
9:18am 2
mph
1014.8mb 59f 60f
9:12am 2 3 mph 1014.8mb 59f 60f
9:06am 2 3 mph 1014.7mb 59f 59f
9:00am 3
mph
1014.6mb 59f 59f
8:54am 2
mph
1014.7mb 59f 60f
8:48am 2
mph
1014.6mb 59f 60f
8:42am 2 3 mph 1014.6mb 59f 60f
8:36am 2 3 mph 1014.5mb 59f 60f
8:30am 1 2 mph 1014.6mb 59f 60f
8:24am  -  2 mph 1014.7mb 59f 60f
8:18am 2 5 mph 1014.8mb 59f 59f
8:12am 5
mph
1014.7mb 59f 59f
8:06am  -  1 mph 1014.7mb 59f 61f
8:00am  -  2 mph 1014.7mb 59f 61f
7:54am 3 5 mph 1014.6mb 59f 59f
7:48am 2 3 mph 1014.6mb 59f 60f
7:42am  -  2 mph 1014.5mb 59f 60f
7:36am 1 2 mph 1014.5mb 59f 59f
7:30am  -  1 mph 1014.5mb 59f 59f
7:24am  -  1 mph 1014.4mb 59f 59f
7:18am  -  1 mph 1014.4mb 59f 57f
7:12am 2 6 mph 1014.4mb 59f 56f
7:06am 3 7 mph 1014.4mb 59f 56f
7:00am  -  2 mph 1014.4mb 59f 57f
6:54am 1 2 mph 1014.4mb 59f 57f
6:48am 1 2 mph 1014.5mb 59f 57f
6:42am  -  1 mph 1014.5mb 59f 57f
6:36am  -  2 mph 1014.4mb 59f 57f
6:30am 1 2 mph 1014.4mb 59f 57f
6:24am 1 3 mph 1014.4mb 59f 57f
6:18am 3 5 mph 1014.2mb 59f 57f
6:12am  -  3 mph 1014.2mb 59f 57f
6:06am 2 6 mph 1014.2mb 59f 57f
6:00am 6
mph
1014.2mb 59f 58f
5:54am 2 3 mph 1014.1mb 59f 59f
5:48am 3 5 mph 1014.2mb 59f 59f
5:42am 3 10 mph 1014.1mb 59f 61f
5:36am 10 14 mph 1014.1mb 59f 61f
5:30am 9 10 mph 1014.1mb 59f 61f
5:24am 2 5 mph 1014.1mb 59f 58f
5:18am  -  2 mph 1013.9mb 59f 58f
5:12am 2
mph
1013.8mb 59f 58f
5:06am  -  1 mph 1013.7mb 59f 57f
5:00am 1 3 mph 1013.7mb 59f 57f
4:54am 2 3 mph 1013.7mb 59f 58f
4:48am  -  2 mph 1013.6mb 59f 58f
4:42am 2 3 mph 1013.7mb 59f 58f
4:36am 3
mph
1013.7mb 59f 58f
4:30am 2
mph
1013.8mb 59f 58f
4:24am 1
mph
1013.8mb 59f 58f
4:18am 2
mph
1013.9mb 59f 58f
4:12am  -  2 mph 1013.9mb 59f 58f
4:06am 1 2 mph 1013.9mb 59f 58f
4:00am 3 5 mph 1013.9mb 59f 58f
3:54am 6
mph
1013.8mb 58f 59f
3:48am 5 6 mph 1013.9mb 58f 59f
3:42am 1 5 mph 1013.9mb 58f 59f
3:36am 2
mph
1014mb 58f 59f
3:30am 1 3 mph 1014mb 58f 59f
3:24am 2 3 mph 1014.1mb 58f 60f
3:18am 2 5 mph 1014.2mb 58f 60f
3:12am 2 5 mph 1014.2mb 58f 60f
3:06am 2 3 mph 1014.3mb 58f 60f
3:00am 2 5 mph 1014.2mb 58f 60f
2:54am 3 6 mph 1014.3mb 58f 60f
2:48am 5 6 mph 1014.3mb 58f 59f
2:42am  -  3 mph 1014.2mb 58f 58f
2:36am 2 6 mph 1014.4mb 58f 59f
2:30am 3 5 mph 1014.4mb 58f 59f
2:24am 3 5 mph 1014.3mb 58f 58f
2:18am 3
mph
1014.4mb 58f 58f
2:12am 2 3 mph 1014.5mb 58f 58f
2:06am 2 3 mph 1014.5mb 58f 58f
2:00am 3 5 mph 1014.5mb 58f 59f
1:54am 3 5 mph 1014.4mb 58f 59f
1:48am 3 6 mph 1014.3mb 58f 60f
1:42am 2 5 mph 1014.2mb 58f 60f
1:36am 3 6 mph 1014.2mb 58f 60f
1:30am 2 5 mph 1014.1mb 58f 60f